createdAt,value
2022-10-31T00:00:59.306Z,7.7
2022-10-31T00:02:07.671Z,7.7
2022-10-31T00:03:16.185Z,7.2
2022-10-31T00:04:24.518Z,7.2
2022-10-31T00:05:32.886Z,7.2
2022-10-31T00:06:41.402Z,7.6
2022-10-31T00:07:49.750Z,7.6
2022-10-31T00:08:58.077Z,7.6
2022-10-31T00:10:06.633Z,7.7
2022-10-31T00:11:14.960Z,7.7
2022-10-31T00:12:23.290Z,7.7
2022-10-31T00:13:31.849Z,7.5
2022-10-31T00:14:40.188Z,7.5
2022-10-31T00:15:48.531Z,7.5
2022-10-31T00:16:57.073Z,7.7
2022-10-31T00:18:05.422Z,7.7
2022-10-31T00:19:13.747Z,7.7
2022-10-31T00:20:22.284Z,7.8
2022-10-31T00:21:30.655Z,7.8
2022-10-31T00:22:38.974Z,7.8
2022-10-31T00:23:47.534Z,8.3
2022-10-31T00:24:55.873Z,8.3
2022-10-31T00:26:04.222Z,8.3
2022-10-31T00:27:12.763Z,7.5
2022-10-31T00:28:21.114Z,7.5
2022-10-31T00:29:29.433Z,7.5
2022-10-31T00:30:37.966Z,6.6
2022-10-31T00:31:46.287Z,6.6
2022-10-31T00:32:54.634Z,6.6
2022-10-31T00:34:03.202Z,6.9
2022-10-31T00:35:11.533Z,6.9
2022-10-31T00:36:19.870Z,6.9
2022-10-31T00:37:28.455Z,6.4
2022-10-31T00:38:36.776Z,6.4
2022-10-31T00:39:45.146Z,6.4
2022-10-31T00:40:53.690Z,7
2022-10-31T00:42:02.025Z,7
2022-10-31T00:44:18.936Z,6.9
2022-10-31T00:45:27.266Z,6.9
2022-10-31T00:46:35.625Z,6.9
2022-10-31T00:47:44.164Z,8.1
2022-10-31T00:48:52.500Z,8.1
2022-10-31T00:50:00.831Z,8.1
2022-10-31T00:51:09.395Z,7.4
2022-10-31T00:52:17.724Z,7.4
2022-10-31T00:53:26.084Z,7.4
2022-10-31T00:54:34.603Z,7.8
2022-10-31T00:55:42.943Z,7.8
2022-10-31T00:56:51.282Z,7.8
2022-10-31T00:58:00.050Z,7.8
2022-10-31T00:59:08.177Z,7.8
2022-10-31T01:00:16.521Z,7.8
2022-10-31T01:01:25.196Z,7.5
2022-10-31T01:02:33.607Z,7.5
2022-10-31T01:03:41.760Z,7.5
2022-10-31T01:04:50.330Z,7.2
2022-10-31T01:05:58.655Z,7.2
2022-10-31T01:07:07.005Z,7.2
2022-10-31T01:08:15.653Z,7.5
2022-10-31T01:09:24.000Z,7.5
2022-10-31T01:10:32.324Z,7.5
2022-10-31T01:11:40.883Z,7.9
2022-10-31T01:12:49.229Z,7.9
2022-10-31T01:13:57.556Z,7.9
2022-10-31T01:15:06.102Z,7.8
2022-10-31T01:16:14.440Z,7.8
2022-10-31T01:17:22.762Z,7.8
2022-10-31T01:18:31.322Z,8
2022-10-31T01:19:39.667Z,8
2022-10-31T01:20:47.991Z,8
2022-10-31T01:21:56.573Z,8.4
2022-10-31T01:23:04.893Z,8.4
2022-10-31T01:24:13.217Z,8.4
2022-10-31T01:25:21.776Z,8.4
2022-10-31T01:26:30.103Z,8.4
2022-10-31T01:27:38.417Z,8.4
2022-10-31T01:28:46.961Z,7.2
2022-10-31T01:29:55.300Z,7.2
2022-10-31T01:31:03.648Z,7.2
2022-10-31T01:32:12.191Z,7.9
2022-10-31T01:33:20.543Z,7.9
2022-10-31T01:34:29.711Z,7.9
2022-10-31T01:35:38.278Z,7.9
2022-10-31T01:36:46.616Z,7.9
2022-10-31T01:37:54.948Z,7.9
2022-10-31T01:39:03.501Z,7.7
2022-10-31T01:40:11.837Z,7.7
2022-10-31T01:41:20.199Z,7.7
2022-10-31T01:42:28.723Z,7.6
2022-10-31T01:43:37.079Z,7.6
2022-10-31T01:44:45.400Z,7.6
2022-10-31T01:45:53.962Z,7.6
2022-10-31T01:47:02.303Z,7.6
2022-10-31T01:48:10.633Z,7.6
2022-10-31T01:49:19.195Z,7.2
2022-10-31T01:50:27.544Z,7.2
2022-10-31T01:51:35.883Z,7.2
2022-10-31T01:52:44.432Z,7.4
2022-10-31T01:53:52.769Z,7.4
2022-10-31T01:55:01.098Z,7.4
2022-10-31T01:56:09.659Z,7
2022-10-31T01:57:18.014Z,7
2022-10-31T01:58:26.352Z,7
2022-10-31T01:59:34.896Z,6.9
2022-10-31T02:00:43.279Z,6.9
2022-10-31T02:01:51.877Z,6.9
2022-10-31T02:03:00.397Z,7.5
2022-10-31T02:04:08.442Z,7.5
2022-10-31T02:05:16.778Z,7.5
2022-10-31T02:06:25.326Z,6.6
2022-10-31T02:07:33.669Z,6.6
2022-10-31T02:08:41.996Z,6.6
2022-10-31T02:09:50.553Z,7.3
2022-10-31T02:10:58.901Z,7.3
2022-10-31T02:12:07.226Z,7.3
2022-10-31T02:13:15.842Z,6
2022-10-31T02:14:24.109Z,6
2022-10-31T02:15:32.443Z,6
2022-10-31T02:16:40.993Z,6.7
2022-10-31T02:17:49.320Z,6.7
2022-10-31T02:18:57.661Z,6.7
2022-10-31T02:20:06.211Z,6.6
2022-10-31T02:21:14.564Z,6.6
2022-10-31T02:22:22.912Z,6.6
2022-10-31T02:23:31.446Z,6.2
2022-10-31T02:24:39.778Z,6.2
2022-10-31T02:25:48.122Z,6.2
2022-10-31T02:26:56.677Z,6.6
2022-10-31T02:28:05.216Z,6.6
2022-10-31T02:29:13.359Z,6.6
2022-10-31T02:30:21.898Z,6.8
2022-10-31T02:31:30.241Z,6.8
2022-10-31T02:32:38.570Z,6.8
2022-10-31T02:33:47.109Z,6.5
2022-10-31T02:34:55.452Z,6.5
2022-10-31T02:36:03.777Z,6.5
2022-10-31T02:37:12.322Z,6.8
2022-10-31T02:38:20.670Z,6.8
2022-10-31T02:39:29.005Z,6.8
2022-10-31T02:40:37.563Z,6.8
2022-10-31T02:41:45.908Z,6.8
2022-10-31T02:42:54.294Z,6.8
2022-10-31T02:44:02.780Z,5.9
2022-10-31T02:45:11.132Z,5.9
2022-10-31T02:46:19.443Z,5.9
2022-10-31T02:47:27.980Z,6
2022-10-31T02:48:36.317Z,6
2022-10-31T02:49:44.665Z,6
2022-10-31T02:50:53.206Z,6.1
2022-10-31T02:52:01.539Z,6.1
2022-10-31T02:53:09.871Z,6.1
2022-10-31T02:54:18.406Z,5.4
2022-10-31T02:55:26.756Z,5.4
2022-10-31T02:56:35.100Z,5.4
2022-10-31T02:57:43.634Z,5.7
2022-10-31T02:58:51.981Z,5.7
2022-10-31T03:00:00.327Z,5.7
2022-10-31T03:01:09.005Z,5.6
2022-10-31T03:02:17.496Z,5.6
2022-10-31T03:03:25.554Z,5.6
2022-10-31T03:04:34.124Z,4.3
2022-10-31T03:05:42.485Z,4.3
2022-10-31T03:06:50.813Z,4.3
2022-10-31T03:07:59.365Z,4.7
2022-10-31T03:09:07.700Z,4.7
2022-10-31T03:10:16.038Z,4.7
2022-10-31T03:11:24.586Z,4.2
2022-10-31T03:12:32.932Z,4.2
2022-10-31T03:13:41.265Z,4.2
2022-10-31T03:14:49.839Z,3.8
2022-10-31T03:15:58.176Z,3.8
2022-10-31T03:17:06.531Z,3.8
2022-10-31T03:18:15.060Z,4.3
2022-10-31T03:19:23.394Z,4.3
2022-10-31T03:20:31.731Z,4.3
2022-10-31T03:21:40.274Z,3.7
2022-10-31T03:22:48.619Z,3.7
2022-10-31T03:23:56.943Z,3.7
2022-10-31T03:25:05.510Z,4.1
2022-10-31T03:26:13.847Z,4.1
2022-10-31T03:27:22.195Z,4.1
2022-10-31T03:28:30.723Z,3.6
2022-10-31T03:29:39.085Z,3.6
2022-10-31T03:30:47.431Z,3.6
2022-10-31T03:31:55.969Z,3.9
2022-10-31T03:33:04.485Z,3.9
2022-10-31T03:34:12.630Z,3.9
2022-10-31T03:35:21.203Z,3.5
2022-10-31T03:36:29.531Z,3.5
2022-10-31T03:37:37.872Z,3.5
2022-10-31T03:38:46.412Z,4.1
2022-10-31T03:39:54.741Z,4.1
2022-10-31T03:41:03.067Z,4.1
2022-10-31T03:42:11.623Z,3.5
2022-10-31T03:43:20.002Z,3.5
2022-10-31T03:44:28.307Z,3.5
2022-10-31T03:45:36.842Z,3.7
2022-10-31T03:46:45.177Z,3.7
2022-10-31T03:47:53.513Z,3.7
2022-10-31T03:49:02.091Z,3.3
2022-10-31T03:50:10.409Z,3.3
2022-10-31T03:51:18.730Z,3.3
2022-10-31T03:52:27.286Z,3
2022-10-31T03:53:35.620Z,3
2022-10-31T03:54:43.958Z,3
2022-10-31T03:55:52.500Z,3
2022-10-31T03:57:00.845Z,3
2022-10-31T03:58:09.290Z,3
2022-10-31T03:59:17.743Z,3.4
2022-10-31T04:00:26.076Z,3.4
2022-10-31T04:01:34.534Z,3.4
2022-10-31T04:02:43.090Z,3.5
2022-10-31T04:03:51.296Z,3.5
2022-10-31T04:04:59.653Z,3.5
2022-10-31T04:06:08.182Z,3.8
2022-10-31T04:07:16.504Z,3.8
2022-10-31T04:08:24.845Z,3.8
2022-10-31T04:09:33.387Z,3.8
2022-10-31T04:10:41.712Z,3.8
2022-10-31T04:11:50.048Z,3.8
2022-10-31T04:12:58.875Z,3.2
2022-10-31T04:14:06.921Z,3.2
2022-10-31T04:15:15.245Z,3.2
2022-10-31T04:16:23.793Z,3.3
2022-10-31T04:17:32.135Z,3.3
2022-10-31T04:18:40.480Z,3.3
2022-10-31T04:19:49.019Z,3.3
2022-10-31T04:20:57.375Z,3.3
2022-10-31T04:22:05.685Z,3.3
2022-10-31T04:23:14.634Z,3.3
2022-10-31T04:24:22.557Z,3.3
2022-10-31T04:25:30.884Z,3.3
2022-10-31T04:26:39.425Z,3.7
2022-10-31T04:27:47.764Z,3.7
2022-10-31T04:28:56.100Z,3.7
2022-10-31T04:30:04.641Z,3.6
2022-10-31T04:31:12.967Z,3.6
2022-10-31T04:32:21.305Z,3.6
2022-10-31T04:33:29.852Z,3.3
2022-10-31T04:34:38.189Z,3.3
2022-10-31T04:35:46.526Z,3.3
2022-10-31T04:36:55.096Z,4
2022-10-31T04:38:03.408Z,4
2022-10-31T04:39:11.739Z,4
2022-10-31T04:40:20.301Z,3.7
2022-10-31T04:41:28.630Z,3.7
2022-10-31T04:42:36.978Z,3.7
2022-10-31T04:43:45.520Z,3.8
2022-10-31T04:44:53.846Z,3.8
2022-10-31T04:46:02.187Z,3.8
2022-10-31T04:47:10.732Z,4.3
2022-10-31T04:48:19.068Z,4.3
2022-10-31T04:49:27.396Z,4.3
2022-10-31T04:50:35.940Z,3.7
2022-10-31T04:51:44.263Z,3.7
2022-10-31T04:52:52.644Z,3.7
2022-10-31T04:54:01.145Z,3.7
2022-10-31T04:55:09.475Z,3.7
2022-10-31T04:56:17.811Z,3.7
2022-10-31T04:57:26.369Z,3.5
2022-10-31T04:58:34.710Z,3.5
2022-10-31T04:59:43.048Z,3.5
2022-10-31T05:00:51.587Z,3.4
2022-10-31T05:02:00.060Z,3.4
2022-10-31T05:03:08.265Z,3.4
2022-10-31T05:04:16.809Z,3.6
2022-10-31T05:05:25.132Z,3.6
2022-10-31T05:06:33.473Z,3.6
2022-10-31T05:07:42.011Z,3.9
2022-10-31T05:08:50.396Z,3.9
2022-10-31T05:09:58.698Z,3.9
2022-10-31T05:11:07.261Z,4.1
2022-10-31T05:12:15.601Z,4.1
2022-10-31T05:13:23.948Z,4.1
2022-10-31T05:14:32.494Z,3.8
2022-10-31T05:15:40.826Z,3.8
2022-10-31T05:16:49.154Z,3.8
2022-10-31T05:17:58.118Z,4.3
2022-10-31T05:19:06.469Z,4.3
2022-10-31T05:20:14.808Z,4.3
2022-10-31T05:21:23.344Z,3.8
2022-10-31T05:22:31.708Z,3.8
2022-10-31T05:23:43.045Z,3.8
2022-10-31T05:24:48.603Z,4.1
2022-10-31T05:25:56.910Z,4.1
2022-10-31T05:27:05.258Z,4.1
2022-10-31T05:28:13.802Z,4.2
2022-10-31T05:29:22.132Z,4.2
2022-10-31T05:30:30.478Z,4.2
2022-10-31T05:31:39.015Z,4.2
2022-10-31T05:32:47.357Z,4.2
2022-10-31T05:33:55.686Z,4.2
2022-10-31T05:35:04.237Z,3.8
2022-10-31T05:36:12.565Z,3.8
2022-10-31T05:37:20.901Z,3.8
2022-10-31T05:38:29.442Z,3.9
2022-10-31T05:39:37.787Z,3.9
2022-10-31T05:40:46.135Z,3.9
2022-10-31T05:41:54.676Z,3.3
2022-10-31T05:43:03.282Z,3.3
2022-10-31T05:44:11.326Z,3.3
2022-10-31T05:45:19.869Z,3.9
2022-10-31T05:46:28.249Z,3.9
2022-10-31T05:47:36.566Z,3.9
2022-10-31T05:48:45.101Z,3.3
2022-10-31T05:49:53.435Z,3.3
2022-10-31T05:51:01.758Z,3.3
2022-10-31T05:52:10.318Z,3.7
2022-10-31T05:53:18.651Z,3.7
2022-10-31T05:54:26.993Z,3.7
2022-10-31T05:55:35.534Z,4.1
2022-10-31T05:56:43.918Z,4.1
2022-10-31T05:57:52.202Z,4.1
2022-10-31T05:59:00.747Z,4.2
2022-10-31T06:00:09.074Z,4.2
2022-10-31T06:01:17.457Z,4.2
2022-10-31T06:02:25.952Z,3.9
2022-10-31T06:03:34.287Z,3.9
2022-10-31T06:04:42.624Z,3.9
2022-10-31T06:05:54.013Z,3.8
2022-10-31T06:06:59.513Z,3.8
2022-10-31T06:08:07.842Z,3.8
2022-10-31T06:09:16.388Z,3.7
2022-10-31T06:10:24.725Z,3.7
2022-10-31T06:11:33.063Z,3.7
2022-10-31T06:12:41.682Z,3.8
2022-10-31T06:13:49.946Z,3.8
2022-10-31T06:14:58.278Z,3.8
2022-10-31T06:16:06.825Z,4.3
2022-10-31T06:17:15.156Z,4.3
2022-10-31T06:18:23.492Z,4.3
2022-10-31T06:19:32.031Z,4
2022-10-31T06:20:40.366Z,4
2022-10-31T06:21:48.695Z,4
2022-10-31T06:22:57.332Z,4
2022-10-31T06:24:05.577Z,4
2022-10-31T06:25:13.990Z,4
2022-10-31T06:26:22.537Z,4.1
2022-10-31T06:27:30.864Z,4.1
2022-10-31T06:28:39.234Z,4.1
2022-10-31T06:29:47.753Z,4
2022-10-31T06:30:56.089Z,4
2022-10-31T06:32:04.440Z,4
2022-10-31T06:33:12.990Z,5.1
2022-10-31T06:34:21.314Z,5.1
2022-10-31T06:35:29.655Z,5.1
2022-10-31T06:36:38.226Z,4
2022-10-31T06:37:46.905Z,4
2022-10-31T06:38:54.869Z,4
2022-10-31T06:40:03.420Z,4.5
2022-10-31T06:41:11.745Z,4.5
2022-10-31T06:42:20.071Z,4.5
2022-10-31T06:43:28.624Z,4.4
2022-10-31T06:44:36.973Z,4.4
2022-10-31T06:45:45.283Z,4.4
2022-10-31T06:46:53.830Z,4.3
2022-10-31T06:48:18.532Z,4.3
2022-10-31T06:49:10.488Z,4.3
2022-10-31T06:50:19.036Z,5.6
2022-10-31T06:51:27.362Z,5.6
2022-10-31T06:52:35.698Z,5.6
2022-10-31T06:53:44.236Z,8
2022-10-31T06:54:52.618Z,8
2022-10-31T06:56:00.952Z,8
2022-10-31T06:57:09.524Z,11.1
2022-10-31T06:58:17.853Z,11.1
2022-10-31T06:59:26.188Z,11.1
2022-10-31T07:00:34.762Z,16.299999
2022-10-31T07:01:43.202Z,16.299999
2022-10-31T07:02:51.396Z,16.299999
2022-10-31T07:03:59.952Z,12.2
2022-10-31T07:05:08.291Z,12.2
2022-10-31T07:06:16.619Z,12.2
2022-10-31T07:07:25.166Z,10.2
2022-10-31T07:08:33.521Z,10.2
2022-10-31T07:09:41.864Z,10.2
2022-10-31T07:10:50.430Z,8.2
2022-10-31T07:11:58.765Z,8.2
2022-10-31T07:13:07.165Z,8.2
2022-10-31T07:14:15.702Z,6.4
2022-10-31T07:15:24.075Z,6.4
2022-10-31T07:16:32.442Z,6.4
2022-10-31T07:17:40.983Z,6.6
2022-10-31T07:18:49.325Z,6.6
2022-10-31T07:19:57.673Z,6.6
2022-10-31T07:21:06.246Z,5.8
2022-10-31T07:22:14.615Z,5.8
2022-10-31T07:23:22.971Z,5.8
2022-10-31T07:24:31.543Z,5.6
2022-10-31T07:25:39.894Z,5.6
2022-10-31T07:26:48.325Z,5.6
2022-10-31T07:27:56.994Z,5.5
2022-10-31T07:29:05.179Z,5.5
2022-10-31T07:30:13.525Z,5.5
2022-10-31T07:31:22.097Z,5.5
2022-10-31T07:32:30.525Z,5.5
2022-10-31T07:33:38.793Z,5.5
2022-10-31T07:34:47.554Z,5.1
2022-10-31T07:35:55.679Z,5.1
2022-10-31T07:37:04.031Z,5.1
2022-10-31T07:38:12.594Z,5
2022-10-31T07:39:20.939Z,5
2022-10-31T07:40:29.291Z,5
2022-10-31T07:41:37.882Z,4.9
2022-10-31T07:42:46.209Z,4.9
2022-10-31T07:43:54.580Z,4.9
2022-10-31T07:45:03.127Z,4.6
2022-10-31T07:46:11.484Z,4.6
2022-10-31T07:47:19.836Z,4.6
2022-10-31T07:48:28.437Z,4.4
2022-10-31T07:49:36.748Z,4.4
2022-10-31T07:50:45.104Z,4.4
2022-10-31T07:51:53.664Z,4.7
2022-10-31T07:53:02.032Z,4.7
2022-10-31T07:54:10.380Z,4.7
2022-10-31T07:55:18.950Z,4.3
2022-10-31T07:56:27.302Z,4.3
2022-10-31T07:57:35.652Z,4.3
2022-10-31T07:58:44.228Z,4
2022-10-31T07:59:52.575Z,4
2022-10-31T08:01:01.110Z,4
2022-10-31T08:02:09.468Z,4.6
2022-10-31T08:03:17.845Z,4.6
2022-10-31T08:04:26.219Z,4.6
2022-10-31T08:05:34.752Z,3.7
2022-10-31T08:06:43.108Z,3.7
2022-10-31T08:07:51.473Z,3.7
2022-10-31T08:09:00.067Z,3.9
2022-10-31T08:10:08.433Z,3.9
2022-10-31T08:11:16.774Z,3.9
2022-10-31T08:12:25.332Z,4.1
2022-10-31T08:13:34.582Z,4.1
2022-10-31T08:14:42.038Z,4.1
2022-10-31T08:15:50.606Z,3.6
2022-10-31T08:16:58.941Z,3.6
2022-10-31T08:18:07.310Z,3.6
2022-10-31T08:19:15.863Z,3.9
2022-10-31T08:20:24.337Z,3.9
2022-10-31T08:21:32.572Z,3.9
2022-10-31T08:22:42.924Z,4.3
2022-10-31T08:23:49.501Z,4.3
2022-10-31T08:24:57.850Z,4.3
2022-10-31T08:26:06.408Z,3.8
2022-10-31T08:27:14.740Z,3.8
2022-10-31T08:28:23.100Z,3.8
2022-10-31T08:29:31.642Z,3.9
2022-10-31T08:30:39.982Z,3.9
2022-10-31T08:31:48.335Z,3.9
2022-10-31T08:32:56.901Z,4.2
2022-10-31T08:34:05.259Z,4.2
2022-10-31T08:35:13.609Z,4.2
2022-10-31T08:36:22.204Z,4.5
2022-10-31T08:37:30.533Z,4.5
2022-10-31T08:38:38.894Z,4.5
2022-10-31T08:39:47.448Z,4.1
2022-10-31T08:40:55.801Z,4.1
2022-10-31T08:42:04.145Z,4.1
2022-10-31T08:43:12.742Z,4.3
2022-10-31T08:44:21.108Z,4.3
2022-10-31T08:45:29.456Z,4.3
2022-10-31T08:46:38.006Z,4.8
2022-10-31T08:47:46.365Z,4.8
2022-10-31T08:48:54.722Z,4.8
2022-10-31T08:50:03.281Z,5
2022-10-31T08:51:11.634Z,5
2022-10-31T08:52:20.323Z,5
2022-10-31T08:53:28.539Z,5.7
2022-10-31T08:54:36.887Z,5.7
2022-10-31T08:55:45.228Z,5.7
2022-10-31T08:56:53.773Z,4.7
2022-10-31T08:58:02.453Z,4.7
2022-10-31T08:59:10.463Z,4.7
2022-10-31T09:00:19.036Z,5.5
2022-10-31T09:01:27.515Z,5.5
2022-10-31T09:02:35.696Z,5.5
2022-10-31T09:03:44.256Z,6.3
2022-10-31T09:04:52.586Z,6.3
2022-10-31T09:06:01.028Z,6.3
2022-10-31T09:07:24.800Z,5.4
2022-10-31T09:08:17.848Z,5.4
2022-10-31T09:09:26.156Z,5.4
2022-10-31T09:10:34.702Z,4.5
2022-10-31T09:11:43.035Z,4.5
2022-10-31T09:12:51.385Z,4.5
2022-10-31T09:13:59.949Z,4.7
2022-10-31T09:15:08.293Z,4.7
2022-10-31T09:16:16.626Z,4.7
2022-10-31T09:17:25.187Z,4.9
2022-10-31T09:18:33.506Z,4.9
2022-10-31T09:19:41.852Z,4.9
2022-10-31T09:20:50.412Z,5.2
2022-10-31T09:21:58.725Z,5.2
2022-10-31T09:23:07.084Z,5.2
2022-10-31T09:24:15.701Z,4.9
2022-10-31T09:25:23.975Z,4.9
2022-10-31T09:26:32.321Z,4.9
2022-10-31T09:27:40.873Z,5
2022-10-31T09:28:49.245Z,5
2022-10-31T09:29:57.588Z,5
2022-10-31T09:31:06.145Z,5.7
2022-10-31T09:32:14.485Z,5.7
2022-10-31T09:33:22.828Z,5.7
2022-10-31T09:34:31.377Z,5.7
2022-10-31T09:35:39.709Z,5.7
2022-10-31T09:36:48.062Z,5.7
2022-10-31T09:37:56.639Z,5.5
2022-10-31T09:39:04.948Z,5.5
2022-10-31T09:40:13.307Z,5.5
2022-10-31T09:41:21.832Z,5.5
2022-10-31T09:42:30.186Z,5.5
2022-10-31T09:43:38.520Z,5.5
2022-10-31T09:44:47.057Z,5.2
2022-10-31T09:45:55.416Z,5.2
2022-10-31T09:47:03.758Z,5.2
2022-10-31T09:48:12.320Z,4.7
2022-10-31T09:49:20.728Z,4.7
2022-10-31T09:50:28.986Z,4.7
2022-10-31T09:51:37.551Z,5.2
2022-10-31T09:52:45.899Z,5.2
2022-10-31T09:53:54.239Z,5.2
2022-10-31T09:55:02.778Z,5.1
2022-10-31T09:56:11.158Z,5.1
2022-10-31T09:57:19.476Z,5.1
2022-10-31T09:58:28.020Z,5.7
2022-10-31T09:59:36.359Z,5.7
2022-10-31T10:00:44.735Z,5.7
2022-10-31T10:01:53.254Z,5.4
2022-10-31T10:03:01.837Z,5.4
2022-10-31T10:04:09.919Z,5.4
2022-10-31T10:05:18.481Z,5.6
2022-10-31T10:06:26.830Z,5.6
2022-10-31T10:07:35.171Z,5.6
2022-10-31T10:08:43.726Z,5.6
2022-10-31T10:09:52.070Z,5.6
2022-10-31T10:11:00.438Z,5.6
2022-10-31T10:12:09.008Z,5.4
2022-10-31T10:13:17.340Z,5.4
2022-10-31T10:14:25.682Z,5.4
2022-10-31T10:15:34.238Z,5.5
2022-10-31T10:16:42.577Z,5.5
2022-10-31T10:17:50.919Z,5.5
2022-10-31T10:18:59.469Z,6.1
2022-10-31T10:20:07.842Z,6.1
2022-10-31T10:21:16.193Z,6.1
2022-10-31T10:22:24.758Z,5.4
2022-10-31T10:23:33.076Z,5.4
2022-10-31T10:24:41.421Z,5.4
2022-10-31T10:25:49.976Z,5.6
2022-10-31T10:26:58.314Z,5.6
2022-10-31T10:28:06.696Z,5.6
2022-10-31T10:29:15.248Z,5.5
2022-10-31T10:30:23.594Z,5.5
2022-10-31T10:31:31.942Z,5.5
2022-10-31T10:32:40.498Z,5.7
2022-10-31T10:33:48.835Z,5.7
2022-10-31T10:34:57.177Z,5.7
2022-10-31T10:36:05.747Z,5.8
2022-10-31T10:37:14.078Z,5.8
2022-10-31T10:38:22.422Z,5.8
2022-10-31T10:39:30.973Z,5.4
2022-10-31T10:40:39.383Z,5.4
2022-10-31T10:41:47.658Z,5.4
2022-10-31T10:42:56.203Z,5.9
2022-10-31T10:44:04.592Z,5.9
2022-10-31T10:45:12.894Z,5.9
2022-10-31T10:46:21.438Z,6.1
2022-10-31T10:47:29.805Z,6.1
2022-10-31T10:48:38.144Z,6.1
2022-10-31T10:49:46.688Z,6.7
2022-10-31T10:50:55.030Z,6.7
2022-10-31T10:53:11.905Z,6.8
2022-10-31T10:54:20.252Z,6.8
2022-10-31T10:55:28.601Z,6.8
2022-10-31T10:56:37.146Z,6.6
2022-10-31T10:57:45.481Z,6.6
2022-10-31T10:58:53.820Z,6.6
2022-10-31T11:00:02.407Z,6.6
2022-10-31T11:01:10.920Z,6.6
2022-10-31T11:02:19.066Z,6.6
2022-10-31T11:03:27.611Z,6.4
2022-10-31T11:04:35.949Z,6.4
2022-10-31T11:05:44.307Z,6.4
2022-10-31T11:06:52.852Z,6.5
2022-10-31T11:08:01.185Z,6.5
2022-10-31T11:09:09.522Z,6.5
2022-10-31T11:10:18.138Z,5.8
2022-10-31T11:11:26.430Z,5.8
2022-10-31T11:12:34.767Z,5.8
2022-10-31T11:13:43.308Z,6.2
2022-10-31T11:14:51.648Z,6.2
2022-10-31T11:16:00.031Z,6.2
2022-10-31T11:17:08.556Z,6.1
2022-10-31T11:18:16.950Z,6.1
2022-10-31T11:19:25.234Z,6.1
2022-10-31T11:20:33.786Z,5.6
2022-10-31T11:21:42.136Z,5.6
2022-10-31T11:22:50.473Z,5.6
2022-10-31T11:23:59.030Z,5.9
2022-10-31T11:25:07.376Z,5.9
2022-10-31T11:26:15.729Z,5.9
2022-10-31T11:27:24.286Z,6.7
2022-10-31T11:28:32.632Z,6.7
2022-10-31T11:29:40.971Z,6.7
2022-10-31T11:30:49.528Z,6.4
2022-10-31T11:31:57.886Z,6.4
2022-10-31T11:33:06.205Z,6.4
2022-10-31T11:34:14.764Z,6.4
2022-10-31T11:35:23.173Z,6.4
2022-10-31T11:36:31.492Z,6.4
2022-10-31T11:37:40.042Z,5.3
2022-10-31T11:38:48.395Z,5.3
2022-10-31T11:39:56.755Z,5.3
2022-10-31T11:41:05.315Z,6.3
2022-10-31T11:42:13.677Z,6.3
2022-10-31T11:43:22.044Z,6.3
2022-10-31T11:44:30.614Z,5.4
2022-10-31T11:45:38.973Z,5.4
2022-10-31T11:46:47.329Z,5.4
2022-10-31T11:47:59.391Z,5.9
2022-10-31T11:49:04.247Z,5.9
2022-10-31T11:50:12.610Z,5.9
2022-10-31T11:51:21.167Z,5.2
2022-10-31T11:52:29.518Z,5.2
2022-10-31T11:53:37.880Z,5.2
2022-10-31T11:54:46.443Z,5.6
2022-10-31T11:55:54.784Z,5.6
2022-10-31T11:57:03.152Z,5.6
2022-10-31T11:58:11.700Z,5.1
2022-10-31T11:59:20.062Z,5.1
2022-10-31T12:01:39.713Z,5.4
2022-10-31T12:02:45.393Z,5.4
2022-10-31T12:03:53.746Z,5.4
2022-10-31T12:05:02.280Z,5.3
2022-10-31T12:06:10.626Z,5.3
2022-10-31T12:07:18.985Z,5.3
2022-10-31T12:08:27.539Z,5.4
2022-10-31T12:09:35.905Z,5.4
2022-10-31T12:10:44.267Z,5.4
2022-10-31T12:11:52.816Z,5.3
2022-10-31T12:13:01.535Z,5.3
2022-10-31T12:14:09.516Z,5.3
2022-10-31T12:15:18.096Z,5.2
2022-10-31T12:16:26.432Z,5.2
2022-10-31T12:17:34.787Z,5.2
2022-10-31T12:18:43.520Z,5.1
2022-10-31T12:19:53.856Z,5.1
2022-10-31T12:21:00.163Z,5.1
2022-10-31T12:22:08.748Z,4.5
2022-10-31T12:23:17.100Z,4.5
2022-10-31T12:24:25.448Z,4.5
2022-10-31T12:25:34.018Z,4.6
2022-10-31T12:26:42.374Z,4.6
2022-10-31T12:27:50.711Z,4.6
2022-10-31T12:28:59.284Z,4.3
2022-10-31T12:30:07.685Z,4.3
2022-10-31T12:31:16.056Z,4.3
2022-10-31T12:32:24.614Z,4.5
2022-10-31T12:33:32.966Z,4.5
2022-10-31T12:34:44.893Z,4.5
2022-10-31T12:35:49.911Z,4.5
2022-10-31T12:36:58.229Z,4.5
2022-10-31T12:38:06.592Z,4.5
2022-10-31T12:39:15.156Z,4.6
2022-10-31T12:40:23.509Z,4.6
2022-10-31T12:41:33.693Z,4.6
2022-10-31T12:42:40.424Z,5
2022-10-31T12:43:48.770Z,5
2022-10-31T12:44:57.142Z,5
2022-10-31T12:46:05.698Z,4.3
2022-10-31T12:47:14.039Z,4.3
2022-10-31T12:48:22.385Z,4.3
2022-10-31T12:49:30.944Z,5
2022-10-31T12:50:39.301Z,5
2022-10-31T12:51:47.677Z,5
2022-10-31T12:52:56.205Z,5.2
2022-10-31T12:54:04.553Z,5.2
2022-10-31T12:55:12.912Z,5.2
2022-10-31T12:56:21.464Z,4.6
2022-10-31T12:57:29.818Z,4.6
2022-10-31T12:58:38.168Z,4.6
2022-10-31T12:59:46.747Z,5.1
2022-10-31T13:00:55.135Z,5.1
2022-10-31T13:02:03.514Z,5.1
2022-10-31T13:03:12.009Z,5.6
2022-10-31T13:04:20.351Z,5.6
2022-10-31T13:05:28.711Z,5.6
2022-10-31T13:06:40.719Z,4.6
2022-10-31T13:07:45.670Z,4.6
2022-10-31T13:08:53.999Z,4.6
2022-10-31T13:10:02.564Z,4.5
2022-10-31T13:11:10.917Z,4.5
2022-10-31T13:12:19.275Z,4.5
2022-10-31T13:13:27.824Z,4.6
2022-10-31T13:14:36.186Z,4.6
2022-10-31T13:15:44.535Z,4.6
2022-10-31T13:16:53.092Z,4.2
2022-10-31T13:18:01.448Z,4.2
2022-10-31T13:19:09.792Z,4.2
2022-10-31T13:20:18.357Z,4.6
2022-10-31T13:21:26.705Z,4.6
2022-10-31T13:22:35.068Z,4.6
2022-10-31T13:23:50.699Z,4.4
2022-10-31T13:24:51.997Z,4.4
2022-10-31T13:26:00.346Z,4.4
2022-10-31T13:27:08.890Z,4.7
2022-10-31T13:28:17.239Z,4.7
2022-10-31T13:29:27.066Z,4.7
2022-10-31T13:30:34.603Z,4.3
2022-10-31T13:31:42.946Z,4.3
2022-10-31T13:32:51.304Z,4.3
2022-10-31T13:33:59.855Z,5
2022-10-31T13:35:10.587Z,5
2022-10-31T13:36:18.941Z,5
2022-10-31T13:37:27.503Z,4.8
2022-10-31T13:38:44.084Z,4.8
2022-10-31T13:39:52.757Z,4.8
2022-10-31T13:41:01.351Z,4.9
2022-10-31T13:42:09.697Z,4.9
2022-10-31T13:43:18.055Z,4.9
2022-10-31T13:44:26.613Z,4.9
2022-10-31T13:45:34.994Z,4.9
2022-10-31T13:47:52.031Z,5.2
2022-10-31T13:49:00.392Z,5.2
2022-10-31T13:50:08.754Z,5.2
2022-10-31T13:51:17.314Z,4.5
2022-10-31T13:52:25.662Z,4.5
2022-10-31T13:53:34.019Z,4.5
2022-10-31T13:54:42.574Z,4.8
2022-10-31T13:55:50.958Z,4.8
2022-10-31T13:56:59.281Z,4.8
2022-10-31T13:58:07.840Z,4.6
2022-10-31T13:59:16.193Z,4.6
2022-10-31T14:00:24.548Z,4.6
2022-10-31T14:01:33.314Z,4.9
2022-10-31T14:02:41.470Z,4.9
2022-10-31T14:04:04.922Z,4.9
2022-10-31T14:04:58.408Z,4.9
2022-10-31T14:06:06.748Z,4.9
2022-10-31T14:07:15.105Z,4.9
2022-10-31T14:08:23.663Z,5.5
2022-10-31T14:09:32.016Z,5.5
2022-10-31T14:10:40.411Z,5.5
2022-10-31T14:11:48.965Z,4
2022-10-31T14:12:57.283Z,4
2022-10-31T14:14:05.623Z,4
2022-10-31T14:15:14.197Z,4.7
2022-10-31T14:16:22.534Z,4.7
2022-10-31T14:17:30.879Z,4.7
2022-10-31T14:18:39.439Z,5.6
2022-10-31T14:19:47.791Z,5.6
2022-10-31T14:20:56.148Z,5.6
2022-10-31T14:22:04.731Z,5.6
2022-10-31T14:23:13.080Z,5.6
2022-10-31T14:24:21.441Z,5.6
2022-10-31T14:25:29.999Z,5.3
2022-10-31T14:26:38.359Z,5.3
2022-10-31T14:27:46.729Z,5.3
2022-10-31T14:28:55.260Z,6.7
2022-10-31T14:30:03.620Z,6.7
2022-10-31T15:05:08.265Z,0
2022-10-31T15:06:16.645Z,0
2022-10-31T15:07:25.450Z,4.4
2022-10-31T15:08:33.606Z,4.4
2022-10-31T15:09:41.960Z,4.4
2022-10-31T15:10:50.532Z,5.1
2022-10-31T15:11:58.905Z,5.1
2022-10-31T15:13:07.252Z,5.1
2022-10-31T15:14:15.796Z,6.1
2022-10-31T15:15:24.166Z,6.1
2022-10-31T15:17:41.073Z,6.2
2022-10-31T15:18:49.433Z,6.2
2022-10-31T15:19:57.819Z,6.2
2022-10-31T15:21:08.564Z,6.4
2022-10-31T15:22:14.715Z,6.4
2022-10-31T15:23:23.103Z,6.4
2022-10-31T15:24:31.647Z,5.8
2022-10-31T15:25:39.981Z,5.8
2022-10-31T15:26:48.343Z,5.8
2022-10-31T15:27:56.900Z,5.1
2022-10-31T15:29:05.282Z,5.1
2022-10-31T15:30:13.606Z,5.1
2022-10-31T15:31:22.164Z,5
2022-10-31T15:32:30.502Z,5
2022-10-31T15:33:41.574Z,5
2022-10-31T15:34:47.415Z,5.5
2022-10-31T15:35:55.806Z,5.5
2022-10-31T15:37:04.130Z,5.5
2022-10-31T15:38:12.691Z,5.9
2022-10-31T15:39:21.121Z,5.9
2022-10-31T15:40:29.447Z,5.9
2022-10-31T15:41:38.062Z,6
2022-10-31T15:42:46.407Z,6
2022-10-31T15:43:54.746Z,6
2022-10-31T15:45:03.295Z,6.5
2022-10-31T15:46:11.636Z,6.5
2022-10-31T15:47:19.984Z,6.5
2022-10-31T15:48:28.558Z,7.4
2022-10-31T15:49:36.903Z,7.4
2022-10-31T15:50:45.256Z,7.4
2022-10-31T15:51:54.651Z,7.1
2022-10-31T15:53:02.543Z,7.1
2022-10-31T15:54:10.509Z,7.1
2022-10-31T15:55:19.065Z,8
2022-10-31T15:56:27.388Z,8
2022-10-31T15:57:35.755Z,8
2022-10-31T15:58:44.336Z,8.4
2022-10-31T15:59:52.690Z,8.4
2022-10-31T16:01:01.067Z,8.4
2022-10-31T16:02:09.678Z,10
2022-10-31T16:03:17.937Z,10
2022-10-31T16:04:26.282Z,10
2022-10-31T16:05:34.821Z,9.9
2022-10-31T16:06:43.163Z,9.9
2022-10-31T16:07:51.534Z,9.9
2022-10-31T16:09:00.058Z,8.8
2022-10-31T16:11:16.721Z,8.8
2022-10-31T16:12:25.268Z,7.8
2022-10-31T16:13:33.617Z,7.8
2022-10-31T16:14:41.954Z,7.8
2022-10-31T16:15:55.954Z,7.9
2022-10-31T16:16:58.903Z,7.9
2022-10-31T16:18:07.256Z,7.9
2022-10-31T16:19:15.801Z,7.7
2022-10-31T16:20:24.150Z,7.7
2022-10-31T16:21:32.505Z,7.7
2022-10-31T16:22:41.045Z,8
2022-10-31T16:23:49.408Z,8
2022-10-31T16:24:57.721Z,8
2022-10-31T16:26:06.270Z,7.7
2022-10-31T16:27:14.602Z,7.7
2022-10-31T16:28:23.661Z,7.7